sensor_id;sensor_type;location;lat;lon;timestamp;pressure;altitude;pressure_sealevel;temperature;humidity
27685;BME280;46113;50.130;8.526;2023-07-31T00:01:27;98923.84;;;13.54;73.02
27685;BME280;46113;50.130;8.526;2023-07-31T00:03:54;98915.75;;;13.56;72.94
27685;BME280;46113;50.130;8.526;2023-07-31T00:06:21;98905.00;;;13.57;73.39
27685;BME280;46113;50.130;8.526;2023-07-31T00:08:48;98904.50;;;13.52;73.36
27685;BME280;46113;50.130;8.526;2023-07-31T00:11:15;98907.53;;;13.47;73.08
27685;BME280;46113;50.130;8.526;2023-07-31T00:13:43;98905.97;;;13.45;72.94
27685;BME280;46113;50.130;8.526;2023-07-31T00:16:10;98896.91;;;13.47;72.98
27685;BME280;46113;50.130;8.526;2023-07-31T00:18:38;98905.31;;;13.41;71.54
27685;BME280;46113;50.130;8.526;2023-07-31T00:21:05;98904.25;;;13.44;72.13
27685;BME280;46113;50.130;8.526;2023-07-31T00:23:33;98893.03;;;13.51;72.94
27685;BME280;46113;50.130;8.526;2023-07-31T00:26:00;98900.41;;;13.59;72.35
27685;BME280;46113;50.130;8.526;2023-07-31T00:28:27;98906.56;;;13.48;73.19
27685;BME280;46113;50.130;8.526;2023-07-31T00:30:55;98898.00;;;13.56;72.59
27685;BME280;46113;50.130;8.526;2023-07-31T00:33:25;98899.34;;;13.62;72.87
27685;BME280;46113;50.130;8.526;2023-07-31T00:35:52;98896.06;;;13.47;65.93
27685;BME280;46113;50.130;8.526;2023-07-31T00:38:19;98898.88;;;13.68;66.75
27685;BME280;46113;50.130;8.526;2023-07-31T00:40:46;98898.88;;;13.68;68.92
27685;BME280;46113;50.130;8.526;2023-07-31T00:43:13;98900.19;;;13.62;71.73
27685;BME280;46113;50.130;8.526;2023-07-31T00:45:40;98901.53;;;13.68;72.17
27685;BME280;46113;50.130;8.526;2023-07-31T00:48:07;98897.31;;;13.65;72.33
27685;BME280;46113;50.130;8.526;2023-07-31T00:50:35;98897.13;;;13.44;69.82
27685;BME280;46113;50.130;8.526;2023-07-31T00:53:03;98895.06;;;13.48;70.39
27685;BME280;46113;50.130;8.526;2023-07-31T00:55:32;98890.88;;;13.57;71.26
27685;BME280;46113;50.130;8.526;2023-07-31T00:57:59;98890.25;;;13.53;72.74
27685;BME280;46113;50.130;8.526;2023-07-31T01:00:27;98886.88;;;13.51;73.03
27685;BME280;46113;50.130;8.526;2023-07-31T01:02:54;98887.13;;;13.59;73.42
27685;BME280;46113;50.130;8.526;2023-07-31T01:10:56;98873.59;;;13.51;73.43
27685;BME280;46113;50.130;8.526;2023-07-31T01:13:24;98872.25;;;13.45;73.42
27685;BME280;46113;50.130;8.526;2023-07-31T01:15:51;98872.50;;;13.42;73.27
27685;BME280;46113;50.130;8.526;2023-07-31T01:18:20;98870.28;;;13.36;72.03
27685;BME280;46113;50.130;8.526;2023-07-31T01:20:54;98873.09;;;13.46;71.67
27685;BME280;46113;50.130;8.526;2023-07-31T01:26:30;98866.91;;;13.34;72.05
27685;BME280;46113;50.130;8.526;2023-07-31T01:29:38;98875.97;;;13.43;72.34
27685;BME280;46113;50.130;8.526;2023-07-31T01:32:09;98872.84;;;13.37;72.75
27685;BME280;46113;50.130;8.526;2023-07-31T01:34:37;98870.41;;;13.34;72.65
27685;BME280;46113;50.130;8.526;2023-07-31T01:37:06;98868.50;;;13.36;73.05
27685;BME280;46113;50.130;8.526;2023-07-31T01:39:33;98869.00;;;13.42;73.03
27685;BME280;46113;50.130;8.526;2023-07-31T01:41:59;98861.72;;;13.44;73.06
27685;BME280;46113;50.130;8.526;2023-07-31T01:44:27;98857.59;;;13.39;73.19
27685;BME280;46113;50.130;8.526;2023-07-31T01:46:54;98855.59;;;13.43;73.56
27685;BME280;46113;50.130;8.526;2023-07-31T01:49:22;98854.94;;;13.28;73.59
27685;BME280;46113;50.130;8.526;2023-07-31T01:51:49;98860.03;;;13.43;73.46
27685;BME280;46113;50.130;8.526;2023-07-31T01:54:16;98857.00;;;13.36;73.84
27685;BME280;46113;50.130;8.526;2023-07-31T01:56:43;98848.53;;;13.31;74.82
27685;BME280;46113;50.130;8.526;2023-07-31T01:59:10;98848.94;;;13.37;74.26
27685;BME280;46113;50.130;8.526;2023-07-31T02:01:37;98844.09;;;13.43;74.32
27685;BME280;46113;50.130;8.526;2023-07-31T02:04:04;98839.75;;;13.42;73.79
27685;BME280;46113;50.130;8.526;2023-07-31T02:06:31;98840.47;;;13.44;73.64
27685;BME280;46113;50.130;8.526;2023-07-31T02:08:58;98826.69;;;13.38;73.67
27685;BME280;46113;50.130;8.526;2023-07-31T02:11:25;98825.88;;;13.38;73.59
27685;BME280;46113;50.130;8.526;2023-07-31T02:13:52;98828.63;;;13.36;73.45
27685;BME280;46113;50.130;8.526;2023-07-31T02:16:19;98825.25;;;13.34;73.48
27685;BME280;46113;50.130;8.526;2023-07-31T02:18:46;98826.97;;;13.35;73.26
27685;BME280;46113;50.130;8.526;2023-07-31T02:21:13;98827.69;;;13.37;73.43
27685;BME280;46113;50.130;8.526;2023-07-31T02:23:40;98818.63;;;13.40;73.28
27685;BME280;46113;50.130;8.526;2023-07-31T02:26:07;98817.66;;;13.41;74.04
27685;BME280;46113;50.130;8.526;2023-07-31T02:28:34;98812.22;;;13.43;73.65
27685;BME280;46113;50.130;8.526;2023-07-31T02:31:01;98810.16;;;13.35;72.97
27685;BME280;46113;50.130;8.526;2023-07-31T02:33:28;98808.28;;;13.12;69.86
27685;BME280;46113;50.130;8.526;2023-07-31T02:35:55;98809.69;;;13.41;69.83
27685;BME280;46113;50.130;8.526;2023-07-31T02:38:23;98803.44;;;13.54;71.48
27685;BME280;46113;50.130;8.526;2023-07-31T02:40:50;98807.41;;;13.48;71.94
27685;BME280;46113;50.130;8.526;2023-07-31T02:43:17;98803.44;;;13.54;72.02
27685;BME280;46113;50.130;8.526;2023-07-31T02:45:44;98807.28;;;13.49;72.70
27685;BME280;46113;50.130;8.526;2023-07-31T02:48:11;98806.91;;;13.54;73.08
27685;BME280;46113;50.130;8.526;2023-07-31T02:50:38;98802.84;;;13.50;73.44
27685;BME280;46113;50.130;8.526;2023-07-31T02:53:05;98803.53;;;13.52;73.53
27685;BME280;46113;50.130;8.526;2023-07-31T02:55:32;98804.47;;;13.39;73.48
27685;BME280;46113;50.130;8.526;2023-07-31T02:57:58;98796.78;;;13.48;73.19
27685;BME280;46113;50.130;8.526;2023-07-31T03:00:25;98802.84;;;13.50;73.36
27685;BME280;46113;50.130;8.526;2023-07-31T03:02:52;98801.34;;;13.34;73.32
27685;BME280;46113;50.130;8.526;2023-07-31T03:05:19;98797.25;;;13.42;72.97
27685;BME280;46113;50.130;8.526;2023-07-31T03:07:46;98806.69;;;13.46;72.89
27685;BME280;46113;50.130;8.526;2023-07-31T03:10:14;98799.91;;;13.42;72.99
27685;BME280;46113;50.130;8.526;2023-07-31T03:12:41;98802.19;;;13.46;73.08
27685;BME280;46113;50.130;8.526;2023-07-31T03:15:08;98803.44;;;13.42;72.96
27685;BME280;46113;50.130;8.526;2023-07-31T03:17:35;98804.84;;;13.46;73.47
27685;BME280;46113;50.130;8.526;2023-07-31T03:20:03;98811.41;;;13.42;73.42
27685;BME280;46113;50.130;8.526;2023-07-31T03:22:31;98814.75;;;13.33;74.21
27685;BME280;46113;50.130;8.526;2023-07-31T03:24:59;98807.88;;;13.42;73.96
27685;BME280;46113;50.130;8.526;2023-07-31T03:27:26;98801.25;;;13.47;73.48
27685;BME280;46113;50.130;8.526;2023-07-31T03:29:53;98805.59;;;13.48;73.39
27685;BME280;46113;50.130;8.526;2023-07-31T03:32:21;98807.78;;;13.43;72.70
27685;BME280;46113;50.130;8.526;2023-07-31T03:34:49;98802.06;;;13.36;71.88
27685;BME280;46113;50.130;8.526;2023-07-31T03:37:16;98803.75;;;13.37;70.13
27685;BME280;46113;50.130;8.526;2023-07-31T03:39:43;98809.09;;;13.49;69.73
27685;BME280;46113;50.130;8.526;2023-07-31T03:42:10;98815.53;;;13.58;70.22
27685;BME280;46113;50.130;8.526;2023-07-31T03:44:36;98807.88;;;13.64;70.86
27685;BME280;46113;50.130;8.526;2023-07-31T03:47:04;98809.47;;;13.67;71.26
27685;BME280;46113;50.130;8.526;2023-07-31T03:49:32;98813.81;;;13.57;72.07
27685;BME280;46113;50.130;8.526;2023-07-31T03:51:58;98803.81;;;13.60;71.72
27685;BME280;46113;50.130;8.526;2023-07-31T03:54:25;98801.81;;;13.39;72.60
27685;BME280;46113;50.130;8.526;2023-07-31T03:56:52;98805.22;;;13.42;74.10
27685;BME280;46113;50.130;8.526;2023-07-31T03:59:18;98804.53;;;13.51;73.46
27685;BME280;46113;50.130;8.526;2023-07-31T04:01:45;98800.63;;;13.44;73.54
27685;BME280;46113;50.130;8.526;2023-07-31T04:04:12;98804.63;;;13.38;73.82
27685;BME280;46113;50.130;8.526;2023-07-31T04:06:38;98793.03;;;13.39;73.71
27685;BME280;46113;50.130;8.526;2023-07-31T04:09:05;98808.84;;;13.41;73.89
27685;BME280;46113;50.130;8.526;2023-07-31T04:11:32;98802.56;;;13.30;74.41
27685;BME280;46113;50.130;8.526;2023-07-31T04:13:59;98798.06;;;13.31;74.23
27685;BME280;46113;50.130;8.526;2023-07-31T04:16:26;98797.94;;;13.21;73.92
27685;BME280;46113;50.130;8.526;2023-07-31T04:18:53;98803.25;;;13.21;72.79
27685;BME280;46113;50.130;8.526;2023-07-31T04:21:19;98805.31;;;13.29;73.43
27685;BME280;46113;50.130;8.526;2023-07-31T04:23:46;98800.13;;;13.38;73.37
27685;BME280;46113;50.130;8.526;2023-07-31T04:26:13;98812.72;;;13.36;73.25
27685;BME280;46113;50.130;8.526;2023-07-31T04:28:39;98813.41;;;13.38;73.58
27685;BME280;46113;50.130;8.526;2023-07-31T04:31:06;98808.38;;;13.35;73.27
27685;BME280;46113;50.130;8.526;2023-07-31T04:33:33;98805.72;;;13.35;70.40
27685;BME280;46113;50.130;8.526;2023-07-31T04:35:59;98797.84;;;13.45;70.97
27685;BME280;46113;50.130;8.526;2023-07-31T04:38:26;98794.94;;;13.37;71.24
27685;BME280;46113;50.130;8.526;2023-07-31T04:40:53;98785.53;;;13.56;71.37
27685;BME280;46113;50.130;8.526;2023-07-31T04:43:20;98789.88;;;13.57;72.34
27685;BME280;46113;50.130;8.526;2023-07-31T04:45:47;98782.06;;;13.55;73.08
27685;BME280;46113;50.130;8.526;2023-07-31T04:48:17;98796.31;;;13.65;72.62
27685;BME280;46113;50.130;8.526;2023-07-31T04:50:43;98791.59;;;13.69;72.95
27685;BME280;46113;50.130;8.526;2023-07-31T04:53:10;98784.72;;;13.67;73.20
27685;BME280;46113;50.130;8.526;2023-07-31T04:55:37;98793.66;;;13.77;73.46
27685;BME280;46113;50.130;8.526;2023-07-31T04:58:04;98789.06;;;13.79;73.24
27685;BME280;46113;50.130;8.526;2023-07-31T05:00:31;98785.66;;;13.54;70.74
27685;BME280;46113;50.130;8.526;2023-07-31T05:02:58;98790.13;;;13.76;70.95
27685;BME280;46113;50.130;8.526;2023-07-31T05:05:25;98785.66;;;13.88;71.74
27685;BME280;46113;50.130;8.526;2023-07-31T05:07:51;98780.72;;;13.84;71.36
27685;BME280;46113;50.130;8.526;2023-07-31T05:10:18;98782.53;;;13.72;67.25
27685;BME280;46113;50.130;8.526;2023-07-31T05:12:45;98776.34;;;13.83;69.25
27685;BME280;46113;50.130;8.526;2023-07-31T05:15:11;98785.66;;;14.00;70.15
27685;BME280;46113;50.130;8.526;2023-07-31T05:17:38;98783.50;;;14.05;71.01
27685;BME280;46113;50.130;8.526;2023-07-31T05:20:06;98781.06;;;14.02;71.45
27685;BME280;46113;50.130;8.526;2023-07-31T05:22:33;98783.63;;;14.03;71.49
27685;BME280;46113;50.130;8.526;2023-07-31T05:24:59;98781.69;;;13.94;72.01
27685;BME280;46113;50.130;8.526;2023-07-31T05:27:26;98780.00;;;13.93;71.48
27685;BME280;46113;50.130;8.526;2023-07-31T05:29:53;98777.97;;;13.85;71.51
27685;BME280;46113;50.130;8.526;2023-07-31T05:32:20;98782.41;;;13.96;70.81
27685;BME280;46113;50.130;8.526;2023-07-31T05:34:47;98773.59;;;13.96;70.28
27685;BME280;46113;50.130;8.526;2023-07-31T05:37:14;98772.13;;;14.03;70.51
27685;BME280;46113;50.130;8.526;2023-07-31T05:39:41;98776.84;;;13.76;65.96
27685;BME280;46113;50.130;8.526;2023-07-31T05:42:08;98779.53;;;13.88;65.39
27685;BME280;46113;50.130;8.526;2023-07-31T05:44:34;98776.09;;;13.97;66.34
27685;BME280;46113;50.130;8.526;2023-07-31T05:47:01;98780.22;;;14.13;67.39
27685;BME280;46113;50.130;8.526;2023-07-31T05:49:28;98778.50;;;14.23;67.92
27685;BME280;46113;50.130;8.526;2023-07-31T05:51:55;98782.25;;;14.21;69.17
27685;BME280;46113;50.130;8.526;2023-07-31T05:54:22;98786.78;;;14.09;66.44
27685;BME280;46113;50.130;8.526;2023-07-31T05:56:49;98780.59;;;14.08;67.41
27685;BME280;46113;50.130;8.526;2023-07-31T05:59:15;98779.63;;;13.86;68.78
27685;BME280;46113;50.130;8.526;2023-07-31T06:01:42;98784.34;;;13.94;66.24
27685;BME280;46113;50.130;8.526;2023-07-31T06:04:09;98781.19;;;14.12;66.16
27685;BME280;46113;50.130;8.526;2023-07-31T06:06:36;98774.78;;;14.14;67.19
27685;BME280;46113;50.130;8.526;2023-07-31T06:09:03;98775.88;;;14.12;65.43
27685;BME280;46113;50.130;8.526;2023-07-31T06:11:30;98778.91;;;14.07;66.68
27685;BME280;46113;50.130;8.526;2023-07-31T06:13:57;98779.13;;;14.27;65.65
27685;BME280;46113;50.130;8.526;2023-07-31T06:16:23;98781.06;;;14.25;64.59
27685;BME280;46113;50.130;8.526;2023-07-31T06:18:50;98774.75;;;14.37;64.00
27685;BME280;46113;50.130;8.526;2023-07-31T06:21:18;98776.31;;;14.40;66.06
27685;BME280;46113;50.130;8.526;2023-07-31T06:23:44;98770.25;;;14.38;67.24
27685;BME280;46113;50.130;8.526;2023-07-31T06:26:11;98775.22;;;14.42;66.12
27685;BME280;46113;50.130;8.526;2023-07-31T06:28:38;98777.84;;;14.54;67.02
27685;BME280;46113;50.130;8.526;2023-07-31T06:31:05;98767.69;;;14.48;65.76
27685;BME280;46113;50.130;8.526;2023-07-31T06:33:32;98769.50;;;14.47;63.63
27685;BME280;46113;50.130;8.526;2023-07-31T06:35:59;98776.16;;;14.53;63.25
27685;BME280;46113;50.130;8.526;2023-07-31T06:38:26;98775.47;;;14.72;63.64
27685;BME280;46113;50.130;8.526;2023-07-31T06:40:53;98773.78;;;14.71;62.98
27685;BME280;46113;50.130;8.526;2023-07-31T06:43:20;98765.59;;;14.84;63.13
27685;BME280;46113;50.130;8.526;2023-07-31T06:45:50;98764.50;;;15.29;62.85
27685;BME280;46113;50.130;8.526;2023-07-31T06:48:18;98762.91;;;15.38;59.63
27685;BME280;46113;50.130;8.526;2023-07-31T06:50:44;98768.06;;;15.40;60.17
27685;BME280;46113;50.130;8.526;2023-07-31T06:53:11;98777.38;;;15.24;62.44
27685;BME280;46113;50.130;8.526;2023-07-31T06:55:38;98780.56;;;15.39;59.63
27685;BME280;46113;50.130;8.526;2023-07-31T06:58:04;98776.94;;;15.40;59.67
27685;BME280;46113;50.130;8.526;2023-07-31T07:00:31;98787.13;;;15.35;60.86
27685;BME280;46113;50.130;8.526;2023-07-31T07:02:58;98781.09;;;15.33;61.81
27685;BME280;46113;50.130;8.526;2023-07-31T07:05:25;98776.03;;;15.30;61.47
27685;BME280;46113;50.130;8.526;2023-07-31T07:07:52;98777.28;;;15.57;61.49
27685;BME280;46113;50.130;8.526;2023-07-31T07:10:19;98768.00;;;15.51;61.48
27685;BME280;46113;50.130;8.526;2023-07-31T07:12:46;98758.72;;;15.76;59.03
27685;BME280;46113;50.130;8.526;2023-07-31T07:15:12;98758.78;;;15.86;57.59
27685;BME280;46113;50.130;8.526;2023-07-31T07:17:39;98762.78;;;16.12;55.76
27685;BME280;46113;50.130;8.526;2023-07-31T07:20:07;98754.16;;;16.79;55.95
27685;BME280;46113;50.130;8.526;2023-07-31T07:22:34;98760.88;;;16.73;56.17
27685;BME280;46113;50.130;8.526;2023-07-31T07:25:02;98753.56;;;16.65;55.72
27685;BME280;46113;50.130;8.526;2023-07-31T07:27:29;98756.63;;;17.20;56.19
27685;BME280;46113;50.130;8.526;2023-07-31T07:29:55;98767.38;;;16.80;55.67
27685;BME280;46113;50.130;8.526;2023-07-31T07:32:22;98766.50;;;17.00;55.98
27685;BME280;46113;50.130;8.526;2023-07-31T07:34:49;98764.94;;;16.58;55.91
27685;BME280;46113;50.130;8.526;2023-07-31T07:37:16;98750.19;;;16.73;55.08
27685;BME280;46113;50.130;8.526;2023-07-31T07:39:43;98745.81;;;17.12;55.28
27685;BME280;46113;50.130;8.526;2023-07-31T07:42:10;98741.78;;;17.45;54.87
27685;BME280;46113;50.130;8.526;2023-07-31T07:44:37;98746.84;;;18.33;52.96
27685;BME280;46113;50.130;8.526;2023-07-31T07:47:04;98743.34;;;18.69;51.59
27685;BME280;46113;50.130;8.526;2023-07-31T07:49:34;98740.44;;;18.16;51.53
27685;BME280;46113;50.130;8.526;2023-07-31T07:52:02;98742.16;;;18.17;52.05
27685;BME280;46113;50.130;8.526;2023-07-31T07:54:30;98742.84;;;18.19;53.65
27685;BME280;46113;50.130;8.526;2023-07-31T07:56:56;98744.25;;;17.95;52.48
27685;BME280;46113;50.130;8.526;2023-07-31T07:59:23;98735.88;;;17.80;53.33
27685;BME280;46113;50.130;8.526;2023-07-31T08:01:50;98735.50;;;17.74;53.73
27685;BME280;46113;50.130;8.526;2023-07-31T08:04:16;98735.50;;;17.74;52.91
27685;BME280;46113;50.130;8.526;2023-07-31T08:06:43;98727.31;;;17.76;53.46
27685;BME280;46113;50.130;8.526;2023-07-31T08:09:10;98723.91;;;17.46;53.24
27685;BME280;46113;50.130;8.526;2023-07-31T08:11:37;98728.28;;;17.37;52.74
27685;BME280;46113;50.130;8.526;2023-07-31T08:14:03;98728.38;;;17.07;53.09
27685;BME280;46113;50.130;8.526;2023-07-31T08:16:30;98728.88;;;17.31;54.94
27685;BME280;46113;50.130;8.526;2023-07-31T08:18:57;98721.59;;;17.23;54.98
27685;BME280;46113;50.130;8.526;2023-07-31T08:21:24;98720.66;;;17.42;55.38
27685;BME280;46113;50.130;8.526;2023-07-31T08:23:50;98709.94;;;17.14;53.73
27685;BME280;46113;50.130;8.526;2023-07-31T08:26:18;98720.84;;;17.31;54.53
27685;BME280;46113;50.130;8.526;2023-07-31T08:28:45;98713.25;;;17.36;55.51
27685;BME280;46113;50.130;8.526;2023-07-31T08:31:12;98714.84;;;18.31;53.11
27685;BME280;46113;50.130;8.526;2023-07-31T08:33:39;98708.38;;;18.70;52.13
27685;BME280;46113;50.130;8.526;2023-07-31T08:36:06;98704.38;;;19.01;51.89
27685;BME280;46113;50.130;8.526;2023-07-31T08:38:33;98704.84;;;19.41;51.04
27685;BME280;46113;50.130;8.526;2023-07-31T08:41:03;98696.28;;;19.11;49.92
27685;BME280;46113;50.130;8.526;2023-07-31T08:43:30;98694.03;;;19.67;48.19
27685;BME280;46113;50.130;8.526;2023-07-31T08:45:57;98699.06;;;20.30;48.05
27685;BME280;46113;50.130;8.526;2023-07-31T08:48:25;98685.16;;;20.43;48.90
27685;BME280;46113;50.130;8.526;2023-07-31T08:50:52;98688.69;;;20.77;46.64
27685;BME280;46113;50.130;8.526;2023-07-31T08:53:19;98690.38;;;22.00;47.41
27685;BME280;46113;50.130;8.526;2023-07-31T08:55:48;98690.34;;;23.23;42.94
27685;BME280;46113;50.130;8.526;2023-07-31T08:58:15;98689.34;;;23.39;42.44
27685;BME280;46113;50.130;8.526;2023-07-31T09:00:42;98680.50;;;23.46;40.96
27685;BME280;46113;50.130;8.526;2023-07-31T09:03:15;98677.25;;;24.02;39.92
27685;BME280;46113;50.130;8.526;2023-07-31T09:05:46;98691.31;;;23.46;41.16
27685;BME280;46113;50.130;8.526;2023-07-31T09:08:14;98689.69;;;23.06;40.44
27685;BME280;46113;50.130;8.526;2023-07-31T09:10:42;98691.56;;;23.51;39.90
27685;BME280;46113;50.130;8.526;2023-07-31T09:13:09;98683.06;;;22.32;41.89
27685;BME280;46113;50.130;8.526;2023-07-31T09:15:39;98688.44;;;21.77;43.21
27685;BME280;46113;50.130;8.526;2023-07-31T09:18:07;98683.72;;;22.11;43.72
27685;BME280;46113;50.130;8.526;2023-07-31T09:20:34;98691.31;;;21.35;45.10
27685;BME280;46113;50.130;8.526;2023-07-31T09:23:12;98690.47;;;21.10;47.09
27685;BME280;46113;50.130;8.526;2023-07-31T09:25:43;98687.59;;;21.36;46.51
27685;BME280;46113;50.130;8.526;2023-07-31T09:28:11;98686.56;;;21.37;44.80
27685;BME280;46113;50.130;8.526;2023-07-31T09:30:50;98690.56;;;22.68;43.19
27685;BME280;46113;50.130;8.526;2023-07-31T09:33:18;98677.25;;;22.43;42.26
27685;BME280;46113;50.130;8.526;2023-07-31T09:35:47;98670.75;;;22.14;43.56
27685;BME280;46113;50.130;8.526;2023-07-31T09:38:15;98677.22;;;22.90;40.63
27685;BME280;46113;50.130;8.526;2023-07-31T09:40:47;98670.16;;;23.19;40.95
27685;BME280;46113;50.130;8.526;2023-07-31T09:43:19;98671.25;;;23.70;40.06
27685;BME280;46113;50.130;8.526;2023-07-31T09:45:47;98673.03;;;22.87;41.90
27685;BME280;46113;50.130;8.526;2023-07-31T09:48:16;98669.19;;;22.20;41.95
27685;BME280;46113;50.130;8.526;2023-07-31T09:50:52;98687.03;;;20.59;45.25
27685;BME280;46113;50.130;8.526;2023-07-31T09:53:19;98675.75;;;20.31;45.94
27685;BME280;46113;50.130;8.526;2023-07-31T09:55:46;98674.06;;;20.21;46.30
27685;BME280;46113;50.130;8.526;2023-07-31T09:58:13;98668.09;;;19.76;47.21
27685;BME280;46113;50.130;8.526;2023-07-31T10:00:40;98658.72;;;19.37;48.05
27685;BME280;46113;50.130;8.526;2023-07-31T10:03:08;98662.09;;;19.48;48.88
27685;BME280;46113;50.130;8.526;2023-07-31T10:05:36;98666.41;;;18.79;51.12
27685;BME280;46113;50.130;8.526;2023-07-31T10:08:06;98657.06;;;18.83;53.81
27685;BME280;46113;50.130;8.526;2023-07-31T10:10:36;98652.47;;;17.94;54.42
27685;BME280;46113;50.130;8.526;2023-07-31T10:13:04;98650.69;;;18.03;57.36
27685;BME280;46113;50.130;8.526;2023-07-31T10:15:33;98653.63;;;18.46;60.25
27685;BME280;46113;50.130;8.526;2023-07-31T10:18:01;98664.53;;;18.53;59.75
27685;BME280;46113;50.130;8.526;2023-07-31T10:20:29;98664.47;;;18.26;58.06
27685;BME280;46113;50.130;8.526;2023-07-31T10:22:56;98666.22;;;18.54;60.69
27685;BME280;46113;50.130;8.526;2023-07-31T10:25:25;98663.16;;;18.31;59.32
27685;BME280;46113;50.130;8.526;2023-07-31T10:27:54;98662.63;;;18.27;56.84
27685;BME280;46113;50.130;8.526;2023-07-31T10:30:32;98660.34;;;18.50;56.92
27685;BME280;46113;50.130;8.526;2023-07-31T10:33:00;98660.41;;;18.40;57.32
27685;BME280;46113;50.130;8.526;2023-07-31T10:35:28;98657.72;;;18.22;55.70
27685;BME280;46113;50.130;8.526;2023-07-31T10:37:55;98656.41;;;18.36;58.99
27685;BME280;46113;50.130;8.526;2023-07-31T10:40:29;98657.94;;;18.65;59.01
27685;BME280;46113;50.130;8.526;2023-07-31T10:42:56;98652.66;;;19.00;56.71
27685;BME280;46113;50.130;8.526;2023-07-31T10:48:14;98650.03;;;19.09;57.66
27685;BME280;46113;50.130;8.526;2023-07-31T10:50:50;98638.19;;;19.19;57.78
27685;BME280;46113;50.130;8.526;2023-07-31T10:53:31;98636.06;;;18.70;56.35
27685;BME280;46113;50.130;8.526;2023-07-31T10:56:00;98638.72;;;18.70;59.93
27685;BME280;46113;50.130;8.526;2023-07-31T10:58:27;98635.00;;;18.89;60.17
27685;BME280;46113;50.130;8.526;2023-07-31T11:00:58;98633.25;;;18.80;58.67
27685;BME280;46113;50.130;8.526;2023-07-31T11:03:49;98616.59;;;18.68;59.06
27685;BME280;46113;50.130;8.526;2023-07-31T11:06:19;98608.25;;;19.32;59.42
27685;BME280;46113;50.130;8.526;2023-07-31T11:08:47;98610.13;;;19.40;57.58
27685;BME280;46113;50.130;8.526;2023-07-31T11:11:16;98604.66;;;19.15;57.56
27685;BME280;46113;50.130;8.526;2023-07-31T11:13:44;98606.44;;;19.33;57.86
27685;BME280;46113;50.130;8.526;2023-07-31T11:16:13;98602.03;;;19.32;55.99
27685;BME280;46113;50.130;8.526;2023-07-31T11:18:41;98596.78;;;19.14;56.87
27685;BME280;46113;50.130;8.526;2023-07-31T11:21:12;98586.03;;;19.49;56.91
27685;BME280;46113;50.130;8.526;2023-07-31T11:23:39;98588.13;;;19.28;56.28
27685;BME280;46113;50.130;8.526;2023-07-31T11:26:06;98594.41;;;19.45;57.09
27685;BME280;46113;50.130;8.526;2023-07-31T11:28:35;98585.03;;;19.50;55.31
27685;BME280;46113;50.130;8.526;2023-07-31T11:31:02;98585.34;;;19.38;53.89
27685;BME280;46113;50.130;8.526;2023-07-31T11:33:30;98578.53;;;19.09;54.76
27685;BME280;46113;50.130;8.526;2023-07-31T11:35:57;98592.63;;;18.58;55.11
27685;BME280;46113;50.130;8.526;2023-07-31T11:38:30;98587.28;;;18.93;55.41
27685;BME280;46113;50.130;8.526;2023-07-31T11:40:58;98592.72;;;18.75;56.53
27685;BME280;46113;50.130;8.526;2023-07-31T11:43:25;98606.66;;;18.52;58.47
27685;BME280;46113;50.130;8.526;2023-07-31T11:45:55;98602.44;;;18.13;57.80
27685;BME280;46113;50.130;8.526;2023-07-31T11:48:29;98602.69;;;18.01;58.91
27685;BME280;46113;50.130;8.526;2023-07-31T11:50:58;98592.97;;;18.00;58.34
27685;BME280;46113;50.130;8.526;2023-07-31T11:53:28;98579.06;;;17.60;60.92
27685;BME280;46113;50.130;8.526;2023-07-31T11:55:59;98572.19;;;17.94;60.29
27685;BME280;46113;50.130;8.526;2023-07-31T11:58:27;98568.75;;;18.02;58.90
27685;BME280;46113;50.130;8.526;2023-07-31T12:00:56;98564.22;;;18.39;60.70
27685;BME280;46113;50.130;8.526;2023-07-31T12:03:23;98561.44;;;18.49;62.18
27685;BME280;46113;50.130;8.526;2023-07-31T12:05:50;98558.44;;;18.52;59.47
27685;BME280;46113;50.130;8.526;2023-07-31T12:08:22;98563.84;;;18.60;61.56
27685;BME280;46113;50.130;8.526;2023-07-31T12:10:50;98555.84;;;19.03;60.75
27685;BME280;46113;50.130;8.526;2023-07-31T12:13:25;98547.59;;;18.97;60.17
27685;BME280;46113;50.130;8.526;2023-07-31T12:15:56;98547.66;;;19.05;60.27
27685;BME280;46113;50.130;8.526;2023-07-31T12:18:26;98537.69;;;18.80;57.86
27685;BME280;46113;50.130;8.526;2023-07-31T12:20:58;98543.69;;;18.74;60.59
27685;BME280;46113;50.130;8.526;2023-07-31T12:23:30;98528.84;;;18.88;62.13
27685;BME280;46113;50.130;8.526;2023-07-31T12:28:35;98530.47;;;18.81;64.51
27685;BME280;46113;50.130;8.526;2023-07-31T12:31:03;98530.47;;;18.81;63.64
27685;BME280;46113;50.130;8.526;2023-07-31T12:33:32;98536.25;;;19.03;63.77
27685;BME280;46113;50.130;8.526;2023-07-31T12:36:01;98538.19;;;18.84;64.77
27685;BME280;46113;50.130;8.526;2023-07-31T12:38:29;98535.88;;;18.89;63.82
27685;BME280;46113;50.130;8.526;2023-07-31T12:40:56;98541.81;;;18.75;64.35
27685;BME280;46113;50.130;8.526;2023-07-31T12:43:24;98536.25;;;18.68;64.43
27685;BME280;46113;50.130;8.526;2023-07-31T12:45:51;98525.66;;;18.58;62.02
27685;BME280;46113;50.130;8.526;2023-07-31T12:48:19;98531.91;;;18.40;60.91
27685;BME280;46113;50.130;8.526;2023-07-31T12:50:46;98523.94;;;18.04;59.46
27685;BME280;46113;50.130;8.526;2023-07-31T12:53:13;98522.50;;;18.10;64.82
27685;BME280;46113;50.130;8.526;2023-07-31T12:55:39;98518.25;;;18.25;64.28
27685;BME280;46113;50.130;8.526;2023-07-31T12:58:06;98516.28;;;18.09;59.52
27685;BME280;46113;50.130;8.526;2023-07-31T13:00:33;98510.03;;;18.45;60.49
27685;BME280;46113;50.130;8.526;2023-07-31T13:03:00;98515.28;;;18.10;56.76
27685;BME280;46113;50.130;8.526;2023-07-31T13:05:28;98502.00;;;18.45;57.15
27685;BME280;46113;50.130;8.526;2023-07-31T13:07:55;98494.72;;;18.99;57.09
27685;BME280;46113;50.130;8.526;2023-07-31T13:10:23;98494.81;;;19.24;53.62
27685;BME280;46113;50.130;8.526;2023-07-31T13:12:50;98490.28;;;19.24;52.02
27685;BME280;46113;50.130;8.526;2023-07-31T13:15:17;98484.78;;;19.34;52.81
27685;BME280;46113;50.130;8.526;2023-07-31T13:17:44;98479.78;;;19.72;51.58